createdAt,value
2018-06-28T00:02:27.978Z,23.80
2018-06-28T00:04:56.540Z,23.80
2018-06-28T00:07:25.067Z,23.80
2018-06-28T00:09:53.568Z,23.70
2018-06-28T00:12:22.089Z,23.70
2018-06-28T00:17:18.990Z,23.70
2018-06-28T00:19:47.649Z,23.80
2018-06-28T00:22:16.246Z,23.80
2018-06-28T00:24:44.888Z,23.80
2018-06-28T00:27:13.509Z,23.80
2018-06-28T00:29:42.096Z,23.80
2018-06-28T00:32:10.726Z,23.80
2018-06-28T00:34:39.263Z,23.80
2018-06-28T00:37:07.923Z,23.80
2018-06-28T00:39:36.689Z,23.80
2018-06-28T00:42:05.241Z,23.80
2018-06-28T00:44:33.852Z,23.80
2018-06-28T00:47:02.344Z,23.80
2018-06-28T00:49:30.879Z,23.80
2018-06-28T00:51:59.450Z,23.70
2018-06-28T00:54:28.142Z,23.70
2018-06-28T00:56:56.843Z,23.70
2018-06-28T00:59:25.419Z,23.70
2018-06-28T01:01:53.935Z,23.60
2018-06-28T01:04:22.443Z,23.40
2018-06-28T01:09:19.321Z,23.20
2018-06-28T01:11:47.803Z,23.10
2018-06-28T01:14:16.408Z,23.00
2018-06-28T01:16:45.451Z,23.00
2018-06-28T01:21:42.927Z,23.00
2018-06-28T01:26:41.393Z,23.10
2018-06-28T01:29:09.960Z,23.10
2018-06-28T01:31:38.553Z,23.20
2018-06-28T01:34:07.208Z,23.20
2018-06-28T01:36:35.809Z,23.20
2018-06-28T01:39:09.196Z,23.10
2018-06-28T01:41:49.826Z,23.00
2018-06-28T01:44:22.284Z,23.00
2018-06-28T01:46:50.928Z,23.10
2018-06-28T01:49:19.552Z,23.10
2018-06-28T01:51:48.783Z,23.10
2018-06-28T01:54:20.588Z,23.10
2018-06-28T01:56:50.235Z,23.20
2018-06-28T01:59:18.903Z,23.10
2018-06-28T02:01:47.445Z,23.20
2018-06-28T02:04:16.145Z,23.10
2018-06-28T02:06:45.472Z,23.10
2018-06-28T02:11:42.172Z,23.10
2018-06-28T02:14:12.804Z,23.10
2018-06-28T02:16:41.461Z,23.10
2018-06-28T02:19:10.138Z,23.00
2018-06-28T02:21:38.629Z,23.00
2018-06-28T02:24:07.313Z,23.00
2018-06-28T02:26:35.913Z,23.00
2018-06-28T02:29:04.567Z,23.00
2018-06-28T02:31:33.218Z,22.90
2018-06-28T02:34:01.860Z,22.90
2018-06-28T02:36:30.499Z,22.80
2018-06-28T02:38:58.988Z,22.80
2018-06-28T02:41:27.516Z,22.80
2018-06-28T02:46:24.391Z,22.80
2018-06-28T02:48:53.982Z,22.80
2018-06-28T02:51:23.275Z,22.70
2018-06-28T02:53:51.962Z,22.70
2018-06-28T02:56:20.620Z,22.70
2018-06-28T03:01:18.049Z,22.70
2018-06-28T03:03:46.642Z,22.60
2018-06-28T03:06:15.442Z,22.60
2018-06-28T03:08:43.981Z,22.60
2018-06-28T03:11:12.508Z,22.60
2018-06-28T03:13:41.280Z,22.50
2018-06-28T03:17:12.753Z,22.50
2018-06-28T03:19:41.357Z,22.50
2018-06-28T03:22:10.281Z,22.40
2018-06-28T03:24:38.888Z,22.40
2018-06-28T03:27:07.409Z,22.40
2018-06-28T03:29:37.807Z,22.40
2018-06-28T03:32:07.309Z,22.40
2018-06-28T03:34:36.871Z,22.40
2018-06-28T03:37:06.147Z,22.40
2018-06-28T03:39:34.659Z,22.40
2018-06-28T03:42:03.277Z,22.40
2018-06-28T03:44:31.838Z,22.50
2018-06-28T03:47:00.395Z,22.50
2018-06-28T03:49:28.962Z,22.50
2018-06-28T03:51:57.442Z,22.50
2018-06-28T03:54:26.205Z,22.50
2018-06-28T03:56:54.755Z,22.50
2018-06-28T03:59:24.189Z,22.50
2018-06-28T04:01:52.725Z,22.50
2018-06-28T04:04:21.368Z,22.50
2018-06-28T04:06:49.855Z,22.50
2018-06-28T04:11:47.258Z,22.50
2018-06-28T04:14:15.894Z,22.50
2018-06-28T04:16:44.778Z,22.50
2018-06-28T04:19:13.310Z,22.50
2018-06-28T04:21:41.865Z,22.50
2018-06-28T04:24:10.603Z,22.50
2018-06-28T04:26:39.267Z,22.50
2018-06-28T04:29:09.331Z,22.50
2018-06-28T04:31:38.034Z,22.60
2018-06-28T04:34:06.796Z,22.60
2018-06-28T04:36:35.350Z,22.60
2018-06-28T04:39:05.903Z,22.60
2018-06-28T04:41:34.869Z,22.70
2018-06-28T04:44:03.551Z,22.70
2018-06-28T04:46:32.248Z,22.70
2018-06-28T04:49:00.800Z,22.80
2018-06-28T04:51:29.397Z,22.80
2018-06-28T04:53:59.388Z,22.80
2018-06-28T04:56:27.913Z,22.90
2018-06-28T04:58:56.491Z,22.90
2018-06-28T05:01:25.167Z,22.90
2018-06-28T05:03:53.701Z,22.90
2018-06-28T05:06:22.232Z,23.00
2018-06-28T05:08:50.706Z,23.00
2018-06-28T05:11:19.407Z,23.10
2018-06-28T05:13:47.831Z,23.10
2018-06-28T05:18:44.836Z,23.20
2018-06-28T05:21:13.435Z,23.20
2018-06-28T05:23:42.013Z,23.30
2018-06-28T05:26:10.604Z,23.40
2018-06-28T05:28:39.363Z,24.20
2018-06-28T05:31:08.716Z,26.60
2018-06-28T05:33:37.271Z,29.60
2018-06-28T05:36:05.976Z,32.20
2018-06-28T05:38:34.484Z,34.50
2018-06-28T05:43:31.384Z,37.40
2018-06-28T05:45:59.891Z,38.80
2018-06-28T05:48:29.605Z,39.90
2018-06-28T05:50:58.335Z,40.80
2018-06-28T05:53:26.839Z,41.50
2018-06-28T05:55:55.596Z,42.20
2018-06-28T05:58:37.894Z,42.90
2018-06-28T06:01:07.062Z,43.50
2018-06-28T06:03:38.633Z,44.10
2018-06-28T06:06:07.420Z,44.50
2018-06-28T06:11:08.941Z,45.50
2018-06-28T06:13:37.585Z,45.90
2018-06-28T06:18:34.930Z,46.60
2018-06-28T06:23:42.004Z,46.90
2018-06-28T06:26:11.767Z,47.00
2018-06-28T06:28:41.000Z,47.10
2018-06-28T06:31:09.545Z,47.40
2018-06-28T06:33:39.914Z,47.60
2018-06-28T06:36:08.850Z,47.70
2018-06-28T06:38:37.509Z,47.30
2018-06-28T06:41:07.458Z,47.10
2018-06-28T06:43:36.078Z,46.60
2018-06-28T06:46:04.738Z,46.60
2018-06-28T06:48:33.547Z,46.40
2018-06-28T06:51:02.245Z,46.30
2018-06-28T06:53:30.795Z,46.20
2018-06-28T06:56:00.504Z,45.80
2018-06-28T06:58:29.247Z,45.60
2018-06-28T07:00:58.240Z,45.40
2018-06-28T07:03:26.816Z,44.90
2018-06-28T07:05:55.673Z,44.20
2018-06-28T07:08:25.279Z,43.50
2018-06-28T07:10:54.079Z,42.70
2018-06-28T07:13:22.584Z,41.70
2018-06-28T07:15:51.396Z,39.90
2018-06-28T07:18:19.882Z,38.00
2018-06-28T07:20:48.475Z,36.20
2018-06-28T07:23:17.713Z,34.70
2018-06-28T07:25:46.270Z,33.60
2018-06-28T07:28:14.946Z,32.80
2018-06-28T07:30:48.503Z,32.00
2018-06-28T07:33:17.104Z,31.30
2018-06-28T07:35:45.929Z,30.80
2018-06-28T07:38:14.439Z,30.40
2018-06-28T07:40:43.090Z,30.10
2018-06-28T07:45:39.991Z,29.70
2018-06-28T07:48:08.643Z,29.70
2018-06-28T07:50:37.185Z,29.60
2018-06-28T07:53:05.967Z,29.40
2018-06-28T07:55:34.464Z,29.30
2018-06-28T07:58:03.058Z,29.20
2018-06-28T08:00:31.617Z,29.10
2018-06-28T08:03:00.333Z,29.10
2018-06-28T08:07:57.266Z,29.00
2018-06-28T08:10:25.891Z,29.00
2018-06-28T08:12:54.584Z,28.90
2018-06-28T08:15:23.074Z,28.80
2018-06-28T08:17:52.849Z,28.80
2018-06-28T08:20:22.637Z,28.70
2018-06-28T08:22:51.299Z,28.80
2018-06-28T08:25:22.060Z,28.80
2018-06-28T08:27:50.907Z,28.80
2018-06-28T08:30:19.473Z,28.80
2018-06-28T08:32:48.223Z,28.70
2018-06-28T08:35:16.937Z,28.80
2018-06-28T08:45:10.415Z,29.00
2018-06-28T08:47:39.248Z,29.10
2018-06-28T08:50:07.938Z,29.20
2018-06-28T08:52:37.566Z,29.20
2018-06-28T08:55:06.784Z,29.10
2018-06-28T08:57:35.463Z,29.10
2018-06-28T09:00:05.628Z,29.10
2018-06-28T09:02:34.418Z,29.10
2018-06-28T09:05:03.012Z,29.10
2018-06-28T09:07:31.865Z,29.20
2018-06-28T09:10:00.393Z,29.20
2018-06-28T09:14:57.243Z,29.20
2018-06-28T09:17:26.317Z,29.30
2018-06-28T09:19:54.853Z,29.50
2018-06-28T09:22:23.338Z,29.60
2018-06-28T09:24:51.997Z,29.60
2018-06-28T09:27:20.678Z,29.70
2018-06-28T09:32:21.435Z,29.80
2018-06-28T09:34:50.041Z,29.90
2018-06-28T09:37:18.688Z,30.00
2018-06-28T09:39:47.211Z,30.00
2018-06-28T09:42:15.826Z,30.10
2018-06-28T09:44:44.291Z,30.10
2018-06-28T09:47:12.787Z,30.10
2018-06-28T09:49:41.306Z,30.00
2018-06-28T09:52:09.868Z,30.00
2018-06-28T09:54:38.407Z,29.90
2018-06-28T09:57:07.835Z,29.90
2018-06-28T09:59:36.723Z,30.00
2018-06-28T10:02:05.225Z,30.10
2018-06-28T10:04:33.790Z,30.10
2018-06-28T10:07:02.343Z,30.00
2018-06-28T10:09:30.851Z,29.90
2018-06-28T10:11:59.528Z,29.80
2018-06-28T10:14:28.191Z,29.70
2018-06-28T10:16:56.716Z,29.70
2018-06-28T10:19:25.195Z,29.80
2018-06-28T10:21:54.767Z,29.70
2018-06-28T10:24:23.399Z,29.90
2018-06-28T10:26:51.984Z,30.10
2018-06-28T10:29:21.556Z,30.20
2018-06-28T10:31:55.038Z,30.20
2018-06-28T10:34:24.134Z,30.20
2018-06-28T10:36:53.048Z,30.30
2018-06-28T10:39:21.651Z,30.40
2018-06-28T10:41:50.236Z,30.50
2018-06-28T10:46:47.100Z,30.30
2018-06-28T10:54:12.076Z,29.90
2018-06-28T10:56:41.244Z,30.00
2018-06-28T11:01:38.044Z,30.20
2018-06-28T11:04:06.960Z,30.40
2018-06-28T11:06:35.575Z,30.50
2018-06-28T11:09:06.606Z,30.70
2018-06-28T11:11:35.073Z,30.80
2018-06-28T11:14:04.055Z,30.70
2018-06-28T11:16:32.601Z,30.80
2018-06-28T11:19:01.124Z,30.70
2018-06-28T11:21:29.915Z,30.70
2018-06-28T11:23:59.627Z,30.80
2018-06-28T11:26:28.167Z,30.80
2018-06-28T11:28:57.951Z,30.80
2018-06-28T11:31:26.709Z,30.70
2018-06-28T11:33:55.504Z,30.60
2018-06-28T11:36:24.266Z,30.70
2018-06-28T11:38:52.772Z,30.50
2018-06-28T11:41:21.481Z,30.40
2018-06-28T11:43:50.264Z,30.30
2018-06-28T11:46:19.422Z,30.40
2018-06-28T11:48:48.275Z,30.50
2018-06-28T11:51:16.976Z,30.60
2018-06-28T11:53:45.525Z,30.60
2018-06-28T11:56:14.051Z,30.60
2018-06-28T11:58:42.634Z,30.50
2018-06-28T12:01:11.623Z,30.60
2018-06-28T12:03:40.212Z,30.60
2018-06-28T12:06:08.932Z,30.70
2018-06-28T12:08:37.570Z,30.70
2018-06-28T12:13:34.975Z,30.90
2018-06-28T12:16:03.426Z,30.90
2018-06-28T12:18:31.988Z,30.90
2018-06-28T12:21:00.514Z,31.00
2018-06-28T12:23:29.007Z,31.20
2018-06-28T12:25:57.483Z,31.30
2018-06-28T12:28:26.155Z,31.30
2018-06-28T12:30:54.717Z,31.30
2018-06-28T12:33:23.223Z,31.20
2018-06-28T12:35:56.870Z,31.20
2018-06-28T12:38:25.477Z,31.00
2018-06-28T12:40:56.680Z,31.10
2018-06-28T12:43:27.606Z,31.20
2018-06-28T12:45:58.264Z,31.20
2018-06-28T12:48:26.757Z,31.30
2018-06-28T12:50:55.275Z,31.40
2018-06-28T12:53:23.814Z,31.50
2018-06-28T12:56:26.697Z,31.60
2018-06-28T12:58:56.589Z,31.60
2018-06-28T13:01:25.927Z,31.30
2018-06-28T13:03:54.814Z,31.20
2018-06-28T13:06:23.386Z,31.30
2018-06-28T13:08:53.117Z,31.50
2018-06-28T13:11:21.776Z,31.40
2018-06-28T13:13:50.292Z,31.20
2018-06-28T13:16:19.560Z,31.20
2018-06-28T13:18:48.675Z,31.00
2018-06-28T13:21:18.307Z,30.90
2018-06-28T13:23:46.819Z,30.90
2018-06-28T13:28:45.207Z,31.00
2018-06-28T13:33:42.465Z,31.30
2018-06-28T13:36:11.098Z,31.50
2018-06-28T13:38:39.571Z,31.70
2018-06-28T13:41:09.165Z,31.60
2018-06-28T13:43:37.610Z,31.30
2018-06-28T13:46:06.124Z,31.20
2018-06-28T13:48:34.586Z,31.20
2018-06-28T13:53:31.248Z,31.30
2018-06-28T13:55:59.865Z,31.40
2018-06-28T13:58:28.413Z,31.20
2018-06-28T14:03:25.427Z,31.20
2018-06-28T14:05:53.846Z,31.30
2018-06-28T14:08:22.416Z,31.50
2018-06-28T14:10:50.988Z,31.60
2018-06-28T14:13:19.596Z,31.50
2018-06-28T14:15:48.175Z,31.30
2018-06-28T14:18:16.724Z,31.10
2018-06-28T14:20:45.225Z,31.20
2018-06-28T14:23:13.806Z,31.20
2018-06-28T14:25:42.458Z,31.30
2018-06-28T14:28:10.918Z,31.30
2018-06-28T14:30:39.884Z,31.30
2018-06-28T14:33:08.775Z,31.30
2018-06-28T14:38:05.630Z,31.40
2018-06-28T14:43:02.552Z,31.40
2018-06-28T14:45:31.324Z,31.50
2018-06-28T14:47:59.906Z,31.50
2018-06-28T14:50:28.519Z,31.50
2018-06-28T14:52:57.003Z,31.60
2018-06-28T14:55:25.545Z,31.70
2018-06-28T14:57:54.195Z,31.70
2018-06-28T15:00:22.660Z,31.70
2018-06-28T15:02:55.189Z,31.60
2018-06-28T15:05:23.707Z,31.50
2018-06-28T15:07:52.231Z,31.40
2018-06-28T15:10:20.736Z,31.40
2018-06-28T15:12:49.292Z,31.30
2018-06-28T15:15:18.168Z,31.30
2018-06-28T15:17:46.648Z,31.30
2018-06-28T15:20:15.773Z,31.30
2018-06-28T15:22:44.390Z,31.20
2018-06-28T15:25:13.639Z,31.10
2018-06-28T15:27:42.114Z,31.00
2018-06-28T15:30:10.729Z,31.00
2018-06-28T15:32:39.253Z,30.90
2018-06-28T15:35:07.824Z,30.80
2018-06-28T15:37:36.315Z,30.90
2018-06-28T15:40:05.283Z,31.00
2018-06-28T15:42:35.299Z,31.10
2018-06-28T15:45:03.855Z,31.10
2018-06-28T15:47:32.592Z,31.00
2018-06-28T15:50:01.246Z,31.00
2018-06-28T15:52:30.984Z,31.00
2018-06-28T15:54:59.563Z,31.00
2018-06-28T15:57:28.171Z,31.10
2018-06-28T15:59:56.679Z,31.10
2018-06-28T16:02:25.326Z,31.10
2018-06-28T16:04:53.946Z,31.10
2018-06-28T16:07:22.607Z,31.00
2018-06-28T16:09:51.131Z,30.90
2018-06-28T16:12:19.611Z,30.90
2018-06-28T16:14:48.131Z,31.10
2018-06-28T16:17:16.727Z,31.10
2018-06-28T16:19:45.209Z,31.10
2018-06-28T16:22:13.667Z,31.10
2018-06-28T16:24:42.295Z,30.90
2018-06-28T16:27:12.443Z,30.90
2018-06-28T16:29:41.180Z,30.70
2018-06-28T16:34:37.952Z,30.70
2018-06-28T16:39:37.084Z,30.60
2018-06-28T16:42:06.380Z,30.50
2018-06-28T16:44:35.000Z,30.50
2018-06-28T16:47:03.535Z,30.50
2018-06-28T16:49:32.099Z,30.50
2018-06-28T16:52:00.583Z,30.50
2018-06-28T16:54:29.086Z,30.50
2018-06-28T16:56:57.564Z,30.50
2018-06-28T16:59:26.851Z,30.40
2018-06-28T17:01:55.402Z,30.40
2018-06-28T17:04:23.888Z,30.40
2018-06-28T17:06:52.328Z,30.30
2018-06-28T17:09:21.361Z,30.30
2018-06-28T17:11:49.825Z,30.40
2018-06-28T17:14:27.007Z,30.30
2018-06-28T17:16:55.637Z,30.30
2018-06-28T17:19:24.108Z,30.30
2018-06-28T17:21:52.585Z,30.30
2018-06-28T17:24:21.068Z,30.30
2018-06-28T17:26:49.691Z,30.30
2018-06-28T17:29:18.440Z,30.20
2018-06-28T17:31:46.970Z,30.30
2018-06-28T17:34:16.868Z,30.30
2018-06-28T17:36:45.459Z,30.20
2018-06-28T17:39:14.196Z,30.30
2018-06-28T17:41:43.854Z,30.30
2018-06-28T17:44:12.341Z,30.30
2018-06-28T17:46:40.830Z,30.30
2018-06-28T17:49:09.323Z,30.30
2018-06-28T17:51:38.576Z,30.30
2018-06-28T17:54:07.416Z,30.30
2018-06-28T17:56:36.107Z,30.40
2018-06-28T18:01:33.078Z,30.40
2018-06-28T18:04:01.648Z,30.40
2018-06-28T18:06:31.124Z,30.50
2018-06-28T18:08:59.740Z,30.50
2018-06-28T18:11:28.208Z,30.50
2018-06-28T18:13:56.796Z,30.60
2018-06-28T18:16:25.392Z,30.50
2018-06-28T18:18:54.148Z,30.50
2018-06-28T18:21:22.817Z,30.50
2018-06-28T18:23:51.353Z,30.40
2018-06-28T18:26:19.887Z,30.40
2018-06-28T18:28:48.375Z,30.40
2018-06-28T18:31:16.996Z,30.40
2018-06-28T18:36:13.713Z,30.30
2018-06-28T18:38:43.967Z,30.40
2018-06-28T18:43:42.242Z,30.30
2018-06-28T18:46:10.876Z,30.20
2018-06-28T18:48:39.600Z,30.10
2018-06-28T18:51:10.228Z,30.00
2018-06-28T18:53:38.928Z,29.90
2018-06-28T18:56:07.558Z,29.80
2018-06-28T18:58:36.041Z,29.70
2018-06-28T19:01:05.940Z,29.60
2018-06-28T19:03:35.596Z,29.50
2018-06-28T19:06:04.151Z,29.40
2018-06-28T19:08:32.830Z,29.40
2018-06-28T19:11:01.429Z,29.30
2018-06-28T19:13:30.677Z,29.30
2018-06-28T19:16:06.302Z,29.20
2018-06-28T19:18:34.921Z,29.10
2018-06-28T19:21:08.706Z,29.10
2018-06-28T19:26:10.743Z,29.10
2018-06-28T19:28:39.254Z,29.00
2018-06-28T19:31:13.316Z,28.90
2018-06-28T19:33:42.881Z,28.90
2018-06-28T19:36:14.207Z,28.90
2018-06-28T19:38:49.374Z,28.80
2018-06-28T19:42:23.967Z,28.80
2018-06-28T19:44:57.889Z,28.80
2018-06-28T19:47:30.247Z,28.60
2018-06-28T19:50:05.714Z,28.50
2018-06-28T19:52:41.573Z,28.50
2018-06-28T19:55:12.009Z,28.40
2018-06-28T20:02:54.756Z,28.30
2018-06-28T20:05:27.185Z,28.30
2018-06-28T20:07:57.990Z,28.20
2018-06-28T20:10:27.617Z,28.20
2018-06-28T20:14:01.714Z,28.10
2018-06-28T20:16:37.422Z,28.10
2018-06-28T20:19:19.402Z,28.00
2018-06-28T20:21:54.289Z,27.80
2018-06-28T20:24:28.123Z,27.90
2018-06-28T20:27:07.709Z,27.90
2018-06-28T20:29:45.280Z,27.90
2018-06-28T20:32:20.664Z,27.80
2018-06-28T20:34:50.973Z,27.80
2018-06-28T20:37:23.136Z,27.90
2018-06-28T20:39:53.638Z,27.80
2018-06-28T20:42:24.193Z,27.80
2018-06-28T20:47:24.061Z,27.80
2018-06-28T20:49:54.624Z,27.80
2018-06-28T20:52:27.167Z,27.70
2018-06-28T20:54:57.007Z,27.70
2018-06-28T20:57:25.642Z,27.60
2018-06-28T20:59:55.831Z,27.60
2018-06-28T21:02:26.924Z,27.60
2018-06-28T21:05:07.386Z,27.50
2018-06-28T21:07:36.345Z,27.50
2018-06-28T21:17:34.532Z,27.40
2018-06-28T21:20:03.162Z,27.30
2018-06-28T21:22:33.234Z,27.30
2018-06-28T21:25:04.796Z,27.30
2018-06-28T21:27:34.464Z,27.30
2018-06-28T21:30:08.181Z,27.30
2018-06-28T21:32:42.452Z,27.30
2018-06-28T21:35:16.924Z,27.20
2018-06-28T21:37:49.683Z,27.10
2018-06-28T21:40:19.784Z,27.10
2018-06-28T21:42:49.904Z,27.10
2018-06-28T21:45:22.824Z,27.00
2018-06-28T21:47:53.363Z,27.00
2018-06-28T21:50:23.925Z,27.00
2018-06-28T21:52:53.332Z,27.00
2018-06-28T21:55:22.247Z,27.00
2018-06-28T21:57:50.887Z,27.00
2018-06-28T22:00:35.803Z,26.90
2018-06-28T22:03:07.156Z,27.00
2018-06-28T22:05:38.610Z,26.90
2018-06-28T22:08:09.022Z,26.80
2018-06-28T22:10:39.060Z,26.80
2018-06-28T22:13:08.892Z,26.80
2018-06-28T22:15:37.444Z,26.70
2018-06-28T22:18:05.968Z,26.70
2018-06-28T22:20:34.763Z,26.70
2018-06-28T22:23:03.988Z,26.60
2018-06-28T22:25:45.423Z,26.60
2018-06-28T22:28:29.755Z,26.60
2018-06-28T22:33:36.957Z,26.40
2018-06-28T22:36:05.531Z,26.40
2018-06-28T22:38:34.742Z,26.40
2018-06-28T22:41:03.349Z,26.50
2018-06-28T22:43:33.024Z,26.40
2018-06-28T22:46:02.448Z,26.40
2018-06-28T22:48:31.088Z,26.40
2018-06-28T22:51:01.317Z,26.30
2018-06-28T22:53:29.948Z,26.30
2018-06-28T22:55:58.472Z,26.30
2018-06-28T22:58:27.104Z,26.30
2018-06-28T23:00:56.528Z,26.30
2018-06-28T23:03:25.200Z,26.30
2018-06-28T23:05:54.466Z,26.30
2018-06-28T23:08:23.072Z,26.30
2018-06-28T23:10:51.825Z,26.20
2018-06-28T23:13:20.424Z,26.20
2018-06-28T23:15:48.926Z,26.10
2018-06-28T23:18:18.333Z,26.10
2018-06-28T23:20:46.814Z,26.10
2018-06-28T23:23:15.401Z,26.10
2018-06-28T23:25:44.107Z,26.00
2018-06-28T23:30:40.807Z,25.90
2018-06-28T23:33:09.533Z,25.90
2018-06-28T23:35:38.048Z,25.80
2018-06-28T23:38:09.286Z,25.80
2018-06-28T23:40:37.818Z,25.80
2018-06-28T23:43:06.493Z,25.80
2018-06-28T23:45:35.036Z,25.80
2018-06-28T23:48:04.742Z,25.60
2018-06-28T23:50:33.241Z,25.60
2018-06-28T23:53:01.764Z,25.60
2018-06-28T23:55:30.376Z,25.60
2018-06-28T23:57:58.924Z,25.70
